createdAt,value
2023-05-20T00:02:12.513Z,100308.38
2023-05-20T00:05:01.071Z,100301.56
2023-05-20T00:07:50.983Z,100300.13
2023-05-20T00:10:39.589Z,100298.53
2023-05-20T00:13:28.196Z,100296.22
2023-05-20T00:16:16.724Z,100307.63
2023-05-20T00:19:05.606Z,100293.78
2023-05-20T00:21:54.172Z,100294.88
2023-05-20T00:24:44.023Z,100301.94
2023-05-20T00:27:32.546Z,100298.41
2023-05-20T00:30:21.751Z,100299.69
2023-05-20T00:33:10.540Z,100292.25
2023-05-20T00:35:59.164Z,100292.25
2023-05-20T00:38:47.621Z,100293.88
2023-05-20T00:41:37.551Z,100294.09
2023-05-20T00:44:26.742Z,100279.81
2023-05-20T00:47:15.348Z,100278.56
2023-05-20T00:50:04.380Z,100279.63
2023-05-20T00:52:55.318Z,100288.75
2023-05-20T00:55:43.817Z,100288.13
2023-05-20T00:58:33.733Z,100296.41
2023-05-20T01:01:22.293Z,100280.69
2023-05-20T01:04:10.975Z,100281.97
2023-05-20T01:07:01.015Z,100284.06
2023-05-20T01:09:49.597Z,100276.84
2023-05-20T01:12:40.432Z,100276.00
2023-05-20T01:15:30.988Z,100260.56
2023-05-20T01:18:20.545Z,100277.28
2023-05-20T01:21:12.498Z,100281.19
2023-05-20T01:24:04.085Z,100291.13
2023-05-20T01:26:52.611Z,100280.59
2023-05-20T01:29:42.035Z,100276.22
2023-05-20T01:32:34.065Z,100284.91
2023-05-20T01:35:23.717Z,100280.16
2023-05-20T01:38:12.536Z,100276.63
2023-05-20T01:41:04.529Z,100267.94
2023-05-20T01:43:53.069Z,100278.47
2023-05-20T01:46:41.727Z,100261.06
2023-05-20T01:49:30.320Z,100267.25
2023-05-20T01:52:18.819Z,100256.66
2023-05-20T01:55:07.897Z,100251.50
2023-05-20T01:57:57.789Z,100241.78
2023-05-20T02:00:46.661Z,100261.56
2023-05-20T02:03:35.239Z,100251.44
2023-05-20T02:06:23.716Z,100252.06
2023-05-20T02:09:12.271Z,100246.25
2023-05-20T02:12:00.815Z,100240.03
2023-05-20T02:14:51.199Z,100246.81
2023-05-20T02:17:40.455Z,100208.88
2023-05-20T02:20:29.119Z,100233.78
2023-05-20T02:23:17.736Z,100232.78
2023-05-20T02:26:06.576Z,100176.88
2023-05-20T02:28:55.090Z,100239.41
2023-05-20T02:31:44.999Z,100234.03
2023-05-20T02:34:33.550Z,100232.97
2023-05-20T02:37:22.124Z,100234.63
2023-05-20T02:40:12.002Z,100234.63
2023-05-20T02:43:01.446Z,100229.84
2023-05-20T02:45:50.241Z,100227.56
2023-05-20T02:48:40.176Z,100229.41
2023-05-20T02:51:28.762Z,100229.81
2023-05-20T02:54:17.585Z,100232.88
2023-05-20T02:57:06.460Z,100220.28
2023-05-20T02:59:55.738Z,100225.97
2023-05-20T03:02:44.267Z,100231.75
2023-05-20T03:05:37.640Z,100235.75
2023-05-20T03:08:26.959Z,100236.41
2023-05-20T03:11:16.049Z,100231.84
2023-05-20T03:14:04.595Z,100221.75
2023-05-20T03:16:55.416Z,100245.75
2023-05-20T03:19:43.956Z,100222.00
2023-05-20T03:22:33.890Z,100243.72
2023-05-20T03:25:23.847Z,100150.50
2023-05-20T03:28:12.827Z,100231.94
2023-05-20T03:31:02.528Z,100173.13
2023-05-20T03:33:51.185Z,100237.09
2023-05-20T03:36:40.102Z,100233.06
2023-05-20T03:39:29.915Z,100239.31
2023-05-20T03:42:18.395Z,100246.31
2023-05-20T03:45:07.775Z,100244.25
2023-05-20T03:47:56.712Z,100243.03
2023-05-20T03:50:45.225Z,100256.06
2023-05-20T03:53:33.745Z,100256.66
2023-05-20T03:56:23.679Z,100259.56
2023-05-20T03:59:12.158Z,100257.72
2023-05-20T04:02:00.681Z,100258.94
2023-05-20T04:04:52.880Z,100261.84
2023-05-20T04:07:41.526Z,100232.59
2023-05-20T04:10:32.010Z,100258.78
2023-05-20T04:13:21.933Z,100260.22
2023-05-20T04:16:10.505Z,100266.88
2023-05-20T04:19:01.017Z,100256.69
2023-05-20T04:21:49.621Z,100261.28
2023-05-20T04:24:38.190Z,100254.84
2023-05-20T04:27:27.022Z,100252.78
2023-05-20T04:30:18.002Z,100257.50
2023-05-20T04:33:06.605Z,100239.53
2023-05-20T04:35:58.620Z,100248.94
2023-05-20T04:38:48.253Z,100255.38
2023-05-20T04:41:37.387Z,100253.91
2023-05-20T04:44:26.543Z,100233.84
2023-05-20T04:47:16.659Z,100216.91
2023-05-20T04:50:06.164Z,100233.78
2023-05-20T04:52:55.573Z,100250.50
2023-05-20T04:55:44.581Z,100246.13
2023-05-20T04:58:33.335Z,100255.03
2023-05-20T05:01:21.842Z,100240.53
2023-05-20T05:04:11.757Z,100236.53
2023-05-20T05:07:00.316Z,100243.13
2023-05-20T05:09:48.814Z,100228.19
2023-05-20T05:12:37.316Z,100233.03
2023-05-20T05:15:25.849Z,100236.28
2023-05-20T05:18:18.414Z,100238.66
2023-05-20T05:21:08.290Z,100224.94
2023-05-20T05:23:58.305Z,100223.44
2023-05-20T05:26:47.057Z,100223.38
2023-05-20T05:29:35.548Z,100222.31
2023-05-20T05:32:24.074Z,100220.81
2023-05-20T05:35:12.815Z,100215.59
2023-05-20T05:38:03.116Z,100208.69
2023-05-20T05:40:51.793Z,100212.16
2023-05-20T05:43:40.402Z,100197.63
2023-05-20T05:46:28.961Z,100214.50
2023-05-20T05:49:17.538Z,100211.13
2023-05-20T05:52:06.877Z,100210.53
2023-05-20T05:54:56.704Z,100213.53
2023-05-20T05:57:45.343Z,100219.66
2023-05-20T06:00:33.935Z,100220.63
2023-05-20T06:03:22.534Z,100227.25
2023-05-20T06:06:11.234Z,100212.00
2023-05-20T06:08:59.952Z,100211.47
2023-05-20T06:11:49.897Z,100216.56
2023-05-20T06:14:38.465Z,100216.56
2023-05-20T06:17:27.016Z,100209.88
2023-05-20T06:20:15.843Z,100210.00
2023-05-20T06:23:04.395Z,100207.44
2023-05-20T06:25:53.041Z,100205.25
2023-05-20T06:28:42.927Z,100201.78
2023-05-20T06:31:31.484Z,100202.34
2023-05-20T06:34:20.116Z,100198.34
2023-05-20T06:37:08.663Z,100194.91
2023-05-20T06:39:57.240Z,100193.84
2023-05-20T06:42:45.804Z,100191.03
2023-05-20T06:45:35.874Z,100197.72
2023-05-20T06:48:24.465Z,100193.63
2023-05-20T06:51:12.961Z,100199.28
2023-05-20T06:54:01.530Z,100179.16
2023-05-20T06:56:50.050Z,100198.13
2023-05-20T06:59:38.887Z,100197.66
2023-05-20T07:02:28.888Z,100191.31
2023-05-20T07:05:17.718Z,100195.19
2023-05-20T07:08:06.837Z,100187.81
2023-05-20T07:10:56.716Z,100190.97
2023-05-20T07:13:45.192Z,100192.09
2023-05-20T07:16:35.281Z,100187.81
2023-05-20T07:19:25.346Z,100181.16
2023-05-20T07:22:13.900Z,100180.50
2023-05-20T07:25:02.440Z,100170.47
2023-05-20T07:27:51.066Z,100146.56
2023-05-20T07:30:39.646Z,100165.97
2023-05-20T07:33:29.622Z,100157.38
2023-05-20T07:36:19.593Z,100166.47
2023-05-20T07:39:12.527Z,100150.31
2023-05-20T07:42:03.532Z,100170.66
2023-05-20T07:44:52.075Z,100151.22
2023-05-20T07:47:40.772Z,100084.09
2023-05-20T07:50:29.612Z,100143.75
2023-05-20T07:53:19.992Z,100143.78
2023-05-20T07:56:08.760Z,100150.66
2023-05-20T07:58:59.211Z,100151.94
2023-05-20T08:01:47.807Z,100112.34
2023-05-20T08:04:36.988Z,100148.94
2023-05-20T08:07:25.606Z,100153.88
2023-05-20T08:10:15.768Z,100142.66
2023-05-20T08:13:04.448Z,100152.34
2023-05-20T08:15:54.731Z,100153.88
2023-05-20T08:18:43.596Z,100150.16
2023-05-20T08:21:32.323Z,100143.44
2023-05-20T08:24:20.933Z,100140.19
2023-05-20T08:27:10.827Z,100137.56
2023-05-20T08:30:00.923Z,100133.94
2023-05-20T08:32:49.749Z,100130.53
2023-05-20T08:35:39.588Z,100117.59
2023-05-20T08:38:28.331Z,100133.91
2023-05-20T08:41:16.984Z,100117.06
2023-05-20T08:44:07.396Z,100121.53
2023-05-20T08:46:56.926Z,100106.72
2023-05-20T08:49:45.533Z,100130.22
2023-05-20T08:52:35.824Z,100115.78
2023-05-20T08:55:27.826Z,100118.75
2023-05-20T08:58:17.753Z,100119.69
2023-05-20T09:01:09.457Z,100111.00
2023-05-20T09:03:58.108Z,100110.03
2023-05-20T09:06:47.715Z,100088.41
2023-05-20T09:09:36.650Z,100111.50
2023-05-20T09:12:25.201Z,100106.81
2023-05-20T09:15:13.704Z,100116.84
2023-05-20T09:18:04.791Z,100125.22
2023-05-20T09:20:53.802Z,100120.56
2023-05-20T09:23:48.321Z,100123.75
2023-05-20T09:26:37.076Z,100101.38
2023-05-20T09:29:25.973Z,100106.16
2023-05-20T09:32:14.869Z,100126.22
2023-05-20T09:35:06.234Z,100124.09
2023-05-20T09:37:56.044Z,100122.00
2023-05-20T09:40:45.693Z,100114.31
2023-05-20T09:43:34.225Z,100117.06
2023-05-20T09:46:22.927Z,100111.34
2023-05-20T09:49:12.448Z,100099.44
2023-05-20T09:52:03.755Z,100091.50
2023-05-20T09:54:56.396Z,100092.00
2023-05-20T09:57:45.098Z,100102.09
2023-05-20T10:00:34.519Z,100085.53
2023-05-20T10:03:24.128Z,100074.38
2023-05-20T10:06:26.725Z,100100.56
2023-05-20T10:09:27.444Z,100099.16
2023-05-20T10:12:23.581Z,100086.66
2023-05-20T10:15:17.853Z,100086.91
2023-05-20T10:18:14.456Z,100080.09
2023-05-20T10:21:03.040Z,100079.53
2023-05-20T10:23:52.096Z,100062.63
2023-05-20T10:26:42.744Z,100080.28
2023-05-20T10:29:31.945Z,100075.59
2023-05-20T10:32:27.790Z,100066.97
2023-05-20T10:35:22.987Z,100022.59
2023-05-20T10:38:12.611Z,100058.78
2023-05-20T10:41:09.409Z,100012.47
2023-05-20T10:44:03.395Z,100059.56
2023-05-20T10:47:21.008Z,100030.91
2023-05-20T10:50:27.597Z,100046.13
2023-05-20T10:53:25.624Z,100052.63
2023-05-20T10:56:22.598Z,100054.88
2023-05-20T10:59:12.544Z,100052.84
2023-05-20T11:02:01.679Z,100045.38
2023-05-20T11:04:50.574Z,99965.84
2023-05-20T11:07:39.085Z,100044.22
2023-05-20T11:10:27.640Z,100018.47
2023-05-20T11:13:16.267Z,100040.81
2023-05-20T11:16:06.771Z,100033.22
2023-05-20T11:18:55.841Z,100031.31
2023-05-20T11:21:45.231Z,100018.88
2023-05-20T11:24:33.817Z,100025.94
2023-05-20T11:27:22.813Z,100019.16
2023-05-20T11:30:12.677Z,100007.00
2023-05-20T11:33:03.223Z,99977.06
2023-05-20T11:35:53.742Z,100011.59
2023-05-20T11:38:42.385Z,100007.47
2023-05-20T11:41:30.951Z,100011.53
2023-05-20T11:44:21.083Z,100011.00
2023-05-20T11:47:09.611Z,100013.97
2023-05-20T11:49:59.561Z,100007.75
2023-05-20T11:52:48.218Z,100010.31
2023-05-20T11:55:46.393Z,100005.56
2023-05-20T11:58:35.081Z,99997.38
2023-05-20T12:01:23.713Z,99992.13
2023-05-20T12:04:14.808Z,99991.69
2023-05-20T12:07:09.175Z,99964.09
2023-05-20T12:09:57.698Z,99993.44
2023-05-20T12:12:46.366Z,99971.66
2023-05-20T12:15:34.947Z,99995.13
2023-05-20T12:18:23.626Z,99985.72
2023-05-20T12:21:12.109Z,99974.47
2023-05-20T12:24:01.992Z,99982.03
2023-05-20T12:26:50.815Z,99975.94
2023-05-20T12:29:39.390Z,99980.66
2023-05-20T12:32:27.951Z,99980.41
2023-05-20T12:35:16.724Z,99988.56
2023-05-20T12:38:05.455Z,99971.22
2023-05-20T12:40:55.460Z,99971.31
2023-05-20T12:43:43.997Z,99968.25
2023-05-20T12:46:32.630Z,99971.03
2023-05-20T12:49:21.191Z,99969.84
2023-05-20T12:52:18.840Z,99970.25
2023-05-20T12:55:13.755Z,99969.91
2023-05-20T12:58:03.720Z,99979.16
2023-05-20T13:00:52.217Z,99949.41
2023-05-20T13:03:41.178Z,99961.88
2023-05-20T13:06:29.718Z,99960.94
2023-05-20T13:09:18.354Z,99922.28
2023-05-20T13:12:07.553Z,99946.03
2023-05-20T13:14:57.445Z,99947.13
2023-05-20T13:17:46.121Z,99953.34
2023-05-20T13:20:35.045Z,99948.50
2023-05-20T13:23:23.750Z,99946.91
2023-05-20T13:26:12.396Z,99942.59
2023-05-20T13:29:00.928Z,99944.34
2023-05-20T13:31:50.837Z,99945.63
2023-05-20T13:34:39.577Z,99939.78
2023-05-20T13:37:28.154Z,99927.53
2023-05-20T13:40:17.480Z,99925.22
2023-05-20T13:43:06.166Z,99916.69
2023-05-20T13:45:54.688Z,99916.06
2023-05-20T13:48:44.609Z,99912.78
2023-05-20T13:51:33.244Z,99910.28
2023-05-20T13:54:22.009Z,99894.66
2023-05-20T13:57:10.603Z,99886.69
2023-05-20T13:59:59.149Z,99886.09
2023-05-20T14:02:47.829Z,99886.25
2023-05-20T14:05:37.790Z,99891.28
2023-05-20T14:08:26.550Z,99844.03
2023-05-20T14:11:15.063Z,99885.25
2023-05-20T14:14:03.570Z,99884.66
2023-05-20T14:16:52.128Z,99880.81
2023-05-20T14:19:40.757Z,99877.03
2023-05-20T14:22:30.843Z,99872.28
2023-05-20T14:25:19.365Z,99868.16
2023-05-20T14:28:07.858Z,99876.22
2023-05-20T14:30:56.336Z,99875.19
2023-05-20T14:33:44.956Z,99868.88
2023-05-20T14:36:33.555Z,99851.38
2023-05-20T14:39:23.415Z,99860.94
2023-05-20T14:42:12.649Z,99859.00
2023-05-20T14:45:01.160Z,99856.66
2023-05-20T14:47:49.711Z,99742.69
2023-05-20T14:50:38.345Z,99841.19
2023-05-20T14:53:27.093Z,99851.31
2023-05-20T14:56:17.128Z,99849.34
2023-05-20T14:59:05.625Z,99847.25
2023-05-20T15:01:54.152Z,99859.88
2023-05-20T15:04:45.086Z,99855.53
2023-05-20T15:07:33.583Z,99852.22
2023-05-20T15:10:22.206Z,99852.16
2023-05-20T15:13:12.118Z,99849.41
2023-05-20T15:16:00.921Z,99851.63
2023-05-20T15:18:49.457Z,99854.28
2023-05-20T15:21:37.989Z,99841.94
2023-05-20T15:24:26.616Z,99848.81
2023-05-20T15:27:15.098Z,99858.50
2023-05-20T15:30:05.807Z,99845.03
2023-05-20T15:32:54.437Z,99861.41
2023-05-20T15:35:43.025Z,99860.47
2023-05-20T15:38:31.600Z,99860.63
2023-05-20T15:41:21.722Z,99743.16
2023-05-20T15:44:10.676Z,99866.09
2023-05-20T15:47:00.517Z,99857.59
2023-05-20T15:49:49.099Z,99863.22
2023-05-20T15:52:37.774Z,99861.44
2023-05-20T15:55:26.658Z,99858.63
2023-05-20T15:58:15.167Z,99848.50
2023-05-20T16:01:03.786Z,99855.75
2023-05-20T16:03:56.848Z,99846.16
2023-05-20T16:06:46.750Z,99846.00
2023-05-20T16:09:35.423Z,99838.75
2023-05-20T16:12:24.352Z,99839.34
2023-05-20T16:15:13.124Z,99849.41
2023-05-20T16:18:01.738Z,99842.75
2023-05-20T16:20:51.748Z,99858.78
2023-05-20T16:23:40.536Z,99853.06
2023-05-20T16:26:31.371Z,99863.25
2023-05-20T16:29:19.915Z,99818.31
2023-05-20T16:32:08.801Z,99828.88
2023-05-20T16:34:58.006Z,99848.53
2023-05-20T16:37:50.706Z,99851.63
2023-05-20T16:40:39.643Z,99856.50
2023-05-20T16:43:28.175Z,99847.41
2023-05-20T16:46:16.720Z,99858.66
2023-05-20T16:49:05.507Z,99850.03
2023-05-20T16:51:54.136Z,99852.34
2023-05-20T16:54:44.069Z,99841.84
2023-05-20T16:57:32.663Z,99839.56
2023-05-20T17:00:21.250Z,99837.41
2023-05-20T17:03:09.875Z,99833.50
2023-05-20T17:05:58.449Z,99801.56
2023-05-20T17:08:47.004Z,99840.13
2023-05-20T17:11:36.900Z,99830.38
2023-05-20T17:14:25.423Z,99826.59
2023-05-20T17:17:14.931Z,99833.25
2023-05-20T17:20:05.362Z,99847.00
2023-05-20T17:22:53.919Z,99851.59
2023-05-20T17:25:42.575Z,99850.63
2023-05-20T17:28:32.436Z,99863.91
2023-05-20T17:31:21.781Z,99863.06
2023-05-20T17:34:10.494Z,99865.63
2023-05-20T17:36:59.025Z,99861.28
2023-05-20T17:39:47.574Z,99862.91
2023-05-20T17:42:36.119Z,99864.91
2023-05-20T17:45:26.042Z,99861.34
2023-05-20T17:48:14.819Z,99869.84
2023-05-20T17:51:03.422Z,99874.34
2023-05-20T17:53:51.988Z,99858.88
2023-05-20T17:56:40.697Z,99873.28
2023-05-20T17:59:29.224Z,99860.53
2023-05-20T18:02:19.266Z,99875.63
2023-05-20T18:05:09.900Z,99878.31
2023-05-20T18:07:58.452Z,99872.97
2023-05-20T18:10:47.005Z,99874.63
2023-05-20T18:13:35.527Z,99872.25
2023-05-20T18:16:24.125Z,99885.75
2023-05-20T18:19:15.099Z,99877.09
2023-05-20T18:22:03.742Z,99880.34
2023-05-20T18:24:52.246Z,99845.13
2023-05-20T18:27:41.113Z,99782.09
2023-05-20T18:30:29.705Z,99867.56
2023-05-20T18:33:18.592Z,99878.47
2023-05-20T18:36:08.961Z,99878.53
2023-05-20T18:38:57.695Z,99883.16
2023-05-20T18:41:47.492Z,99880.19
2023-05-20T18:44:36.164Z,99880.78
2023-05-20T18:47:24.761Z,99874.78
2023-05-20T18:50:13.328Z,99874.00
2023-05-20T18:53:03.219Z,99875.63
2023-05-20T18:55:52.506Z,99871.28
2023-05-20T18:58:41.070Z,99868.81
2023-05-20T19:01:29.846Z,99871.00
2023-05-20T19:04:18.392Z,99865.59
2023-05-20T19:07:07.198Z,99870.50
2023-05-20T19:09:57.109Z,99874.84
2023-05-20T19:12:45.681Z,99876.50
2023-05-20T19:15:34.392Z,99873.78
2023-05-20T19:18:23.134Z,99870.53
2023-05-20T19:21:11.662Z,99872.16
2023-05-20T19:24:00.208Z,99887.69
2023-05-20T19:26:50.080Z,99887.41
2023-05-20T19:29:38.676Z,99886.88
2023-05-20T19:32:27.248Z,99884.16
2023-05-20T19:35:18.091Z,99889.63
2023-05-20T19:38:06.849Z,99888.53
2023-05-20T19:40:55.422Z,99881.44
2023-05-20T19:43:45.552Z,99872.69
2023-05-20T19:46:34.398Z,99894.78
2023-05-20T19:49:24.733Z,99893.13
2023-05-20T19:52:13.323Z,99892.81
2023-05-20T19:55:02.050Z,99873.78
2023-05-20T19:57:53.366Z,99895.56
2023-05-20T20:00:43.257Z,99894.44
2023-05-20T20:03:33.984Z,99906.97
2023-05-20T20:06:22.583Z,99915.63
2023-05-20T20:09:11.373Z,99911.78
2023-05-20T20:11:59.902Z,99918.09
2023-05-20T20:14:48.494Z,99913.41
2023-05-20T20:17:45.921Z,99913.94
2023-05-20T20:20:39.714Z,99913.38
2023-05-20T20:23:28.444Z,99902.22
2023-05-20T20:26:16.983Z,99911.13
2023-05-20T20:29:05.599Z,99909.81
2023-05-20T20:31:55.536Z,99911.38
2023-05-20T20:34:45.842Z,99915.13
2023-05-20T20:37:35.485Z,99884.59
2023-05-20T20:40:25.547Z,99919.44
2023-05-20T20:43:20.613Z,99914.81
2023-05-20T20:46:11.349Z,99924.03
2023-05-20T20:48:59.920Z,99920.53
2023-05-20T20:51:50.982Z,99921.59
2023-05-20T20:54:42.703Z,99907.69
2023-05-20T20:57:31.996Z,99915.25
2023-05-20T21:00:23.299Z,99919.34
2023-05-20T21:03:12.008Z,99904.06
2023-05-20T21:06:01.373Z,99908.94
2023-05-20T21:08:53.131Z,99910.56
2023-05-20T21:11:43.044Z,99903.44
2023-05-20T21:14:31.587Z,99896.34
2023-05-20T21:17:20.140Z,99894.47
2023-05-20T21:20:09.725Z,99894.97
2023-05-20T21:22:58.257Z,99897.66
2023-05-20T21:25:48.404Z,99848.81
2023-05-20T21:28:36.925Z,99897.63
2023-05-20T21:31:25.524Z,99885.63
2023-05-20T21:34:14.154Z,99891.31
2023-05-20T21:37:02.685Z,99881.50
2023-05-20T21:39:51.282Z,99853.06
2023-05-20T21:42:41.189Z,99884.34
2023-05-20T21:45:29.766Z,99888.38
2023-05-20T21:48:18.292Z,99884.53
2023-05-20T21:51:06.950Z,99880.41
2023-05-20T21:53:55.475Z,99874.38
2023-05-20T21:56:44.110Z,99879.81
2023-05-20T21:59:33.991Z,99872.41
2023-05-20T22:02:22.926Z,99875.13
2023-05-20T22:05:12.829Z,99876.44
2023-05-20T22:08:01.921Z,99871.53
2023-05-20T22:10:50.555Z,99872.44
2023-05-20T22:13:41.583Z,99870.25
2023-05-20T22:16:31.544Z,99860.94
2023-05-20T22:19:21.732Z,99860.38
2023-05-20T22:22:10.650Z,99855.72
2023-05-20T22:24:59.271Z,99853.97
2023-05-20T22:27:48.218Z,99855.63
2023-05-20T22:30:38.283Z,99849.28
2023-05-20T22:33:28.222Z,99846.19
2023-05-20T22:36:16.827Z,99843.75
2023-05-20T22:39:06.926Z,99836.69
2023-05-20T22:41:55.553Z,99842.38
2023-05-20T22:44:44.058Z,99836.88
2023-05-20T22:47:32.633Z,99843.72
2023-05-20T22:50:23.929Z,99835.25
2023-05-20T22:53:12.879Z,99839.28
2023-05-20T22:56:01.456Z,99831.16
2023-05-20T22:58:49.962Z,99834.13
2023-05-20T23:01:38.892Z,99824.81
2023-05-20T23:04:27.536Z,99815.81
2023-05-20T23:07:19.280Z,99823.94
2023-05-20T23:10:08.603Z,99820.13
2023-05-20T23:12:57.225Z,99819.31
2023-05-20T23:15:48.080Z,99805.09
2023-05-20T23:18:36.658Z,99796.66
2023-05-20T23:21:25.392Z,99810.31
2023-05-20T23:24:16.931Z,99815.19
2023-05-20T23:27:06.188Z,99805.66
2023-05-20T23:29:54.890Z,99789.09
2023-05-20T23:32:43.596Z,99805.66
2023-05-20T23:35:32.177Z,99796.66
2023-05-20T23:38:21.074Z,99797.47
2023-05-20T23:41:10.996Z,99798.22
2023-05-20T23:43:59.578Z,99794.94
2023-05-20T23:46:49.418Z,99791.13
2023-05-20T23:49:37.975Z,99795.41
2023-05-20T23:52:26.939Z,99796.69
2023-05-20T23:55:15.706Z,99790.50
2023-05-20T23:58:05.631Z,99787.44
